createdAt,value
2022-08-17T00:02:15.312Z,76.09
2022-08-17T00:04:52.473Z,76.39
2022-08-17T00:07:22.222Z,76.68
2022-08-17T00:09:48.784Z,76.57
2022-08-17T00:12:40.764Z,76.37
2022-08-17T00:15:02.509Z,76.05
2022-08-17T00:17:32.104Z,75.95
2022-08-17T00:20:00.215Z,76.11
2022-08-17T00:22:33.253Z,76.05
2022-08-17T00:25:02.893Z,76.37
2022-08-17T00:27:29.331Z,77.18
2022-08-17T00:29:55.795Z,77.70
2022-08-17T00:33:12.120Z,78.07
2022-08-17T00:35:11.235Z,78.36
2022-08-17T00:37:37.718Z,77.90
2022-08-17T00:40:05.030Z,77.56
2022-08-17T00:42:31.873Z,77.53
2022-08-17T00:44:59.223Z,77.74
2022-08-17T00:47:26.460Z,78.09
2022-08-17T00:49:53.150Z,77.59
2022-08-17T00:52:23.539Z,77.08
2022-08-17T00:54:53.901Z,76.95
2022-08-17T00:57:33.130Z,77.05
2022-08-17T01:00:08.343Z,77.01
2022-08-17T01:02:42.764Z,77.19
2022-08-17T01:05:19.050Z,76.72
2022-08-17T01:07:47.678Z,77.98
2022-08-17T01:11:00.038Z,77.84
2022-08-17T01:13:03.838Z,78.79
2022-08-17T01:15:34.832Z,78.53
2022-08-17T01:18:01.893Z,78.30
2022-08-17T01:20:28.440Z,78.14
2022-08-17T01:22:56.391Z,78.15
2022-08-17T01:25:22.931Z,78.05
2022-08-17T01:27:49.894Z,78.49
2022-08-17T01:30:58.377Z,78.79
2022-08-17T01:33:04.329Z,78.51
2022-08-17T01:35:30.919Z,78.65
2022-08-17T01:37:57.438Z,78.99
2022-08-17T01:40:39.860Z,78.91
2022-08-17T01:43:16.106Z,79.38
2022-08-17T01:45:49.331Z,79.07
2022-08-17T01:48:32.673Z,79.43
2022-08-17T01:50:59.523Z,79.56
2022-08-17T01:53:34.866Z,79.45
2022-08-17T01:56:08.238Z,78.77
2022-08-17T01:58:36.052Z,78.79
2022-08-17T02:01:02.846Z,78.68
2022-08-17T02:03:30.256Z,79.05
2022-08-17T02:05:56.910Z,79.25
2022-08-17T02:08:38.653Z,79.05
2022-08-17T02:11:12.089Z,79.51
2022-08-17T02:13:39.021Z,79.76
2022-08-17T02:16:06.000Z,79.98
2022-08-17T02:18:35.797Z,80.56
2022-08-17T02:21:02.490Z,80.30
2022-08-17T02:23:32.364Z,79.98
2022-08-17T02:26:00.561Z,80.04
2022-08-17T02:28:28.626Z,79.92
2022-08-17T02:31:01.843Z,80.11
2022-08-17T02:33:42.030Z,79.94
2022-08-17T02:36:12.344Z,80.55
2022-08-17T02:38:40.717Z,80.58
2022-08-17T02:41:07.639Z,80.82
2022-08-17T02:43:36.712Z,80.74
2022-08-17T02:46:03.325Z,80.33
2022-08-17T02:48:31.063Z,79.54
2022-08-17T02:50:58.280Z,78.94
2022-08-17T02:53:25.624Z,79.51
2022-08-17T02:55:52.706Z,79.96
2022-08-17T02:58:34.404Z,80.09
2022-08-17T03:01:06.338Z,80.13
2022-08-17T03:03:33.478Z,80.82
2022-08-17T03:06:00.510Z,81.06
2022-08-17T03:08:27.210Z,81.46
2022-08-17T03:10:53.934Z,81.24
2022-08-17T03:13:20.689Z,80.93
2022-08-17T03:15:48.946Z,81.15
2022-08-17T03:18:25.409Z,81.51
2022-08-17T03:20:59.199Z,82.07
2022-08-17T03:23:27.525Z,82.07
2022-08-17T03:25:56.795Z,81.99
2022-08-17T03:28:23.857Z,82.24
2022-08-17T03:30:51.549Z,81.79
2022-08-17T03:33:19.200Z,81.63
2022-08-17T03:35:46.481Z,81.62
2022-08-17T03:38:15.826Z,80.80
2022-08-17T03:40:58.156Z,81.20
2022-08-17T03:43:29.480Z,81.31
2022-08-17T03:46:33.993Z,81.44
2022-08-17T03:49:22.859Z,81.74
2022-08-17T03:52:07.773Z,81.83
2022-08-17T03:54:52.735Z,81.62
2022-08-17T03:57:19.534Z,80.95
2022-08-17T03:59:46.284Z,81.42
2022-08-17T04:02:24.264Z,81.96
2022-08-17T04:04:52.105Z,81.89
2022-08-17T04:07:20.831Z,81.49
2022-08-17T04:09:47.717Z,81.65
2022-08-17T04:12:16.496Z,81.41
2022-08-17T04:14:53.187Z,81.17
2022-08-17T04:17:26.511Z,80.65
2022-08-17T04:19:55.862Z,80.56
2022-08-17T04:22:32.790Z,80.77
2022-08-17T04:25:18.258Z,80.64
2022-08-17T04:27:48.686Z,81.09
2022-08-17T04:30:15.547Z,80.90
2022-08-17T04:33:08.751Z,81.14
2022-08-17T04:35:44.930Z,80.75
2022-08-17T04:38:14.579Z,81.08
2022-08-17T04:40:59.663Z,81.56
2022-08-17T04:43:30.991Z,81.69
2022-08-17T04:46:09.627Z,81.78
2022-08-17T04:48:42.664Z,81.01
2022-08-17T04:51:21.942Z,80.90
2022-08-17T04:53:54.539Z,80.18
2022-08-17T04:56:22.669Z,79.75
2022-08-17T04:58:51.932Z,79.74
2022-08-17T05:01:23.129Z,80.12
2022-08-17T05:03:56.162Z,80.32
2022-08-17T05:06:23.587Z,79.97
2022-08-17T05:08:50.095Z,78.99
2022-08-17T05:11:16.791Z,78.79
2022-08-17T05:13:43.559Z,77.94
2022-08-17T05:16:10.651Z,77.21
2022-08-17T05:18:38.716Z,77.37
2022-08-17T05:21:06.620Z,76.77
2022-08-17T05:23:41.734Z,75.50
2022-08-17T05:26:23.154Z,73.89
2022-08-17T05:28:53.522Z,73.08
2022-08-17T05:31:21.021Z,71.80
2022-08-17T05:33:47.746Z,70.51
2022-08-17T05:36:42.721Z,66.87
2022-08-17T05:39:03.041Z,59.00
2022-08-17T05:41:29.588Z,54.42
2022-08-17T05:43:56.633Z,51.11
2022-08-17T05:46:28.706Z,49.13
2022-08-17T05:49:09.840Z,47.09
2022-08-17T05:52:10.012Z,45.75
2022-08-17T05:54:51.693Z,46.75
2022-08-17T05:57:43.521Z,47.24
2022-08-17T06:00:42.005Z,45.25
2022-08-17T06:03:27.299Z,43.44
2022-08-17T06:06:15.415Z,42.21
2022-08-17T06:08:51.689Z,42.49
2022-08-17T06:11:44.492Z,43.60
2022-08-17T06:14:38.555Z,45.04
2022-08-17T06:17:11.399Z,45.87
2022-08-17T06:19:37.788Z,46.70
2022-08-17T06:22:06.167Z,47.58
2022-08-17T06:25:01.159Z,50.00
2022-08-17T06:28:04.762Z,51.16
2022-08-17T06:30:58.487Z,55.32
2022-08-17T06:33:35.456Z,56.25
2022-08-17T06:36:26.362Z,56.68
2022-08-17T06:39:04.822Z,57.68
2022-08-17T06:41:53.696Z,57.69
2022-08-17T06:44:50.234Z,56.40
2022-08-17T06:47:29.287Z,57.21
2022-08-17T06:50:15.435Z,57.38
2022-08-17T06:52:56.356Z,56.08
2022-08-17T06:55:37.831Z,52.65
2022-08-17T06:58:15.849Z,51.55
2022-08-17T07:00:47.233Z,51.45
2022-08-17T07:03:20.875Z,49.52
2022-08-17T07:06:06.368Z,50.45
2022-08-17T07:08:51.193Z,50.09
2022-08-17T07:11:26.026Z,49.54
2022-08-17T07:14:00.809Z,49.03
2022-08-17T07:16:41.197Z,49.11
2022-08-17T07:19:11.028Z,48.95
2022-08-17T07:21:40.861Z,49.90
2022-08-17T07:24:29.176Z,50.05
2022-08-17T07:27:14.289Z,51.07
2022-08-17T07:29:46.309Z,52.03
2022-08-17T07:32:18.448Z,52.01
2022-08-17T07:35:04.556Z,52.27
2022-08-17T07:37:33.299Z,52.34
2022-08-17T07:40:15.832Z,52.31
2022-08-17T07:43:00.193Z,51.57
2022-08-17T07:45:45.487Z,50.64
2022-08-17T07:48:21.904Z,50.47
2022-08-17T07:50:50.815Z,50.95
2022-08-17T07:53:20.952Z,50.79
2022-08-17T07:55:47.742Z,49.93
2022-08-17T07:58:20.044Z,48.84
2022-08-17T08:01:02.045Z,48.97
2022-08-17T08:03:32.019Z,48.23
2022-08-17T08:06:01.982Z,47.68
2022-08-17T08:08:31.009Z,45.45
2022-08-17T08:11:05.437Z,46.51
2022-08-17T08:13:33.057Z,46.78
2022-08-17T08:16:24.155Z,48.01
2022-08-17T08:18:56.934Z,47.54
2022-08-17T08:21:55.154Z,50.26
2022-08-17T08:24:30.778Z,48.45
2022-08-17T08:27:31.345Z,49.58
2022-08-17T08:30:09.009Z,53.23
2022-08-17T08:33:27.028Z,52.07
2022-08-17T08:37:14.145Z,51.96
2022-08-17T08:39:19.318Z,51.96
2022-08-17T08:42:10.219Z,54.42
2022-08-17T08:45:00.113Z,55.94
2022-08-17T08:47:53.550Z,54.13
2022-08-17T08:50:48.821Z,54.57
2022-08-17T08:53:21.836Z,55.81
2022-08-17T08:55:54.795Z,54.34
2022-08-17T08:58:43.555Z,55.44
2022-08-17T09:01:47.327Z,58.23
2022-08-17T09:04:25.183Z,64.30
2022-08-17T09:07:07.285Z,63.15
2022-08-17T09:09:59.013Z,62.32
2022-08-17T09:12:48.636Z,59.86
2022-08-17T09:15:25.587Z,62.00
2022-08-17T09:18:30.407Z,62.90
2022-08-17T09:20:55.752Z,63.11
2022-08-17T09:23:43.740Z,62.36
2022-08-17T09:26:21.002Z,62.24
2022-08-17T09:28:51.028Z,58.27
2022-08-17T09:31:47.054Z,58.23
2022-08-17T09:34:19.747Z,58.82
2022-08-17T09:37:03.800Z,59.15
2022-08-17T09:39:38.905Z,60.25
2022-08-17T09:42:31.601Z,61.35
2022-08-17T09:45:02.752Z,60.20
2022-08-17T09:47:42.082Z,61.12
2022-08-17T09:50:20.130Z,60.92
2022-08-17T09:53:07.591Z,61.42
2022-08-17T09:56:15.153Z,62.12
2022-08-17T09:59:08.948Z,61.79
2022-08-17T10:01:45.963Z,61.41
2022-08-17T10:04:29.868Z,64.88
2022-08-17T10:07:52.581Z,62.57
2022-08-17T10:10:25.680Z,60.05
2022-08-17T10:13:03.971Z,61.82
2022-08-17T10:15:53.679Z,60.73
2022-08-17T10:18:46.134Z,60.53
2022-08-17T10:21:38.269Z,59.51
2022-08-17T10:25:23.089Z,58.42
2022-08-17T10:27:54.335Z,56.37
2022-08-17T10:30:26.750Z,54.73
2022-08-17T10:32:59.207Z,54.66
2022-08-17T10:35:50.471Z,51.40
2022-08-17T10:38:32.008Z,50.01
2022-08-17T10:41:16.857Z,51.50
2022-08-17T10:44:40.516Z,50.79
2022-08-17T10:47:18.097Z,51.36
2022-08-17T10:49:53.724Z,51.82
2022-08-17T10:52:20.402Z,52.91
2022-08-17T10:54:51.333Z,53.46
2022-08-17T10:57:40.877Z,51.32
2022-08-17T11:00:15.167Z,52.14
2022-08-17T11:02:51.792Z,51.10
2022-08-17T11:05:18.309Z,50.91
2022-08-17T11:07:59.772Z,52.89
2022-08-17T11:10:52.129Z,52.46
2022-08-17T11:13:44.784Z,52.12
2022-08-17T11:16:47.863Z,52.18
2022-08-17T11:19:41.059Z,54.00
2022-08-17T11:22:29.965Z,54.14
2022-08-17T11:25:15.033Z,52.84
2022-08-17T11:27:43.945Z,51.91
2022-08-17T11:30:12.086Z,53.33
2022-08-17T11:32:52.897Z,55.36
2022-08-17T11:35:21.309Z,54.82
2022-08-17T11:37:58.961Z,54.84
2022-08-17T11:40:38.541Z,55.21
2022-08-17T11:43:23.475Z,54.42
2022-08-17T11:46:14.675Z,54.20
2022-08-17T11:49:05.909Z,54.36
2022-08-17T11:52:05.160Z,50.82
2022-08-17T11:54:42.852Z,47.89
2022-08-17T11:57:41.791Z,42.84
2022-08-17T12:01:00.843Z,41.94
2022-08-17T12:03:39.139Z,43.25
2022-08-17T12:06:17.496Z,44.20
2022-08-17T12:08:51.606Z,43.97
2022-08-17T12:12:10.988Z,42.70
2022-08-17T12:14:51.651Z,39.31
2022-08-17T12:17:40.576Z,40.48
2022-08-17T12:20:21.403Z,39.20
2022-08-17T12:23:01.129Z,39.21
2022-08-17T12:25:38.991Z,38.25
2022-08-17T12:28:20.636Z,40.47
2022-08-17T12:30:52.173Z,37.80
2022-08-17T12:33:25.740Z,38.96
2022-08-17T12:36:00.621Z,37.71
2022-08-17T12:38:32.962Z,37.28
2022-08-17T12:41:21.482Z,37.20
2022-08-17T12:43:58.574Z,36.13
2022-08-17T12:46:25.008Z,34.97
2022-08-17T12:48:58.788Z,33.98
2022-08-17T12:51:28.802Z,33.65
2022-08-17T12:53:55.548Z,33.11
2022-08-17T12:56:21.991Z,31.61
2022-08-17T12:58:53.982Z,34.03
2022-08-17T13:01:21.069Z,34.67
2022-08-17T13:03:53.479Z,30.76
2022-08-17T13:06:36.094Z,30.62
2022-08-17T13:09:40.415Z,29.67
2022-08-17T13:12:08.224Z,32.69
2022-08-17T13:14:35.280Z,31.69
2022-08-17T13:17:08.584Z,32.26
2022-08-17T13:19:48.476Z,34.00
2022-08-17T13:22:15.087Z,35.30
2022-08-17T13:24:53.054Z,32.73
2022-08-17T13:27:21.609Z,30.56
2022-08-17T13:29:53.173Z,29.22
2022-08-17T13:32:34.079Z,32.19
2022-08-17T13:35:14.139Z,30.79
2022-08-17T13:37:57.692Z,30.15
2022-08-17T13:40:32.135Z,31.48
2022-08-17T13:42:59.059Z,31.34
2022-08-17T13:45:35.285Z,32.42
2022-08-17T13:48:08.511Z,30.96
2022-08-17T13:51:05.178Z,30.29
2022-08-17T13:53:37.317Z,31.10
2022-08-17T13:56:37.000Z,32.45
2022-08-17T13:59:07.985Z,32.73
2022-08-17T14:01:34.640Z,34.01
2022-08-17T14:04:04.751Z,31.53
2022-08-17T14:06:52.920Z,31.15
2022-08-17T14:09:24.015Z,29.85
2022-08-17T14:11:51.777Z,30.72
2022-08-17T14:14:18.638Z,30.30
2022-08-17T14:16:45.264Z,29.77
2022-08-17T14:19:13.412Z,30.01
2022-08-17T14:21:42.868Z,32.29
2022-08-17T14:24:16.903Z,28.50
2022-08-17T14:26:44.850Z,27.89
2022-08-17T14:29:12.683Z,28.33
2022-08-17T14:31:42.128Z,28.64
2022-08-17T14:34:12.545Z,29.01
2022-08-17T14:36:41.831Z,29.37
2022-08-17T14:39:15.680Z,29.58
2022-08-17T14:41:42.676Z,29.50
2022-08-17T14:44:13.123Z,29.82
2022-08-17T14:46:41.187Z,28.31
2022-08-17T14:49:10.139Z,28.75
2022-08-17T14:51:44.191Z,28.77
2022-08-17T14:54:33.353Z,27.68
2022-08-17T14:57:04.625Z,25.65
2022-08-17T14:59:46.812Z,27.72
2022-08-17T15:02:13.595Z,25.65
2022-08-17T15:04:45.367Z,27.92
2022-08-17T15:07:12.307Z,27.88
2022-08-17T15:09:39.021Z,27.18
2022-08-17T15:12:06.643Z,28.54
2022-08-17T15:14:35.493Z,28.18
2022-08-17T15:17:05.589Z,26.79
2022-08-17T15:19:32.093Z,27.54
2022-08-17T15:21:58.646Z,26.84
2022-08-17T15:24:25.089Z,26.03
2022-08-17T15:26:51.571Z,26.63
2022-08-17T15:29:18.068Z,27.62
2022-08-17T15:31:44.626Z,27.23
2022-08-17T15:34:11.165Z,26.21
2022-08-17T15:36:37.766Z,23.95
2022-08-17T15:39:07.850Z,25.76
2022-08-17T15:41:34.584Z,26.85
2022-08-17T15:44:01.097Z,25.07
2022-08-17T15:46:27.609Z,25.58
2022-08-17T15:48:58.223Z,25.34
2022-08-17T15:51:31.673Z,29.10
2022-08-17T15:54:04.393Z,31.56
2022-08-17T15:56:46.075Z,33.33
2022-08-17T15:59:12.545Z,34.00
2022-08-17T16:03:06.184Z,33.93
2022-08-17T16:04:28.426Z,33.53
2022-08-17T16:06:58.069Z,34.91
2022-08-17T16:09:24.540Z,34.90
2022-08-17T16:11:53.678Z,35.03
2022-08-17T16:14:22.380Z,34.90
2022-08-17T16:16:50.497Z,34.75
2022-08-17T16:19:16.979Z,35.42
2022-08-17T16:21:43.511Z,35.25
2022-08-17T16:24:12.885Z,35.89
2022-08-17T16:26:40.571Z,36.00
2022-08-17T16:29:08.458Z,36.34
2022-08-17T16:31:37.481Z,36.23
2022-08-17T16:34:17.671Z,35.08
2022-08-17T16:36:54.978Z,35.59
2022-08-17T16:39:25.385Z,35.37
2022-08-17T16:41:51.842Z,35.37
2022-08-17T16:44:21.254Z,35.53
2022-08-17T16:46:48.672Z,35.04
2022-08-17T16:49:29.648Z,35.34
2022-08-17T16:52:03.910Z,35.42
2022-08-17T16:54:30.626Z,35.63
2022-08-17T16:56:57.202Z,35.32
2022-08-17T16:59:39.411Z,34.29
2022-08-17T17:02:12.349Z,34.69
2022-08-17T17:04:51.611Z,35.30
2022-08-17T17:07:20.661Z,34.47
2022-08-17T17:09:52.612Z,34.26
2022-08-17T17:12:19.194Z,33.77
2022-08-17T17:15:01.655Z,34.31
2022-08-17T17:17:37.462Z,34.85
2022-08-17T17:20:16.014Z,34.35
2022-08-17T17:23:00.389Z,35.15
2022-08-17T17:25:36.494Z,34.70
2022-08-17T17:28:10.853Z,34.66
2022-08-17T17:30:49.355Z,34.91
2022-08-17T17:33:23.571Z,35.41
2022-08-17T17:36:08.065Z,34.65
2022-08-17T17:38:42.914Z,34.98
2022-08-17T17:41:25.323Z,34.83
2022-08-17T17:44:01.879Z,35.30
2022-08-17T17:46:37.966Z,35.29
2022-08-17T17:49:05.954Z,34.77
2022-08-17T17:52:07.716Z,34.71
2022-08-17T17:54:33.650Z,35.09
2022-08-17T17:57:07.130Z,35.36
2022-08-17T18:00:15.020Z,35.07
2022-08-17T18:02:53.193Z,34.66
2022-08-17T18:05:31.934Z,35.16
2022-08-17T18:08:32.200Z,35.46
2022-08-17T18:11:07.867Z,36.12
2022-08-17T18:13:56.263Z,35.77
2022-08-17T18:16:23.360Z,36.60
2022-08-17T18:18:52.407Z,36.83
2022-08-17T18:21:27.470Z,36.69
2022-08-17T18:23:59.555Z,36.65
2022-08-17T18:26:55.324Z,37.27
2022-08-17T18:29:27.532Z,37.12
2022-08-17T18:32:17.916Z,37.71
2022-08-17T18:34:48.601Z,37.33
2022-08-17T18:37:31.802Z,38.52
2022-08-17T18:39:58.584Z,38.86
2022-08-17T18:42:27.974Z,38.84
2022-08-17T18:44:55.663Z,39.10
2022-08-17T18:47:28.744Z,39.28
2022-08-17T18:49:58.768Z,39.13
2022-08-17T18:52:32.720Z,39.87
2022-08-17T18:55:20.665Z,40.30
2022-08-17T18:58:12.604Z,40.81
2022-08-17T19:00:42.529Z,41.36
2022-08-17T19:03:18.029Z,42.10
2022-08-17T19:05:54.871Z,43.14
2022-08-17T19:08:32.867Z,43.78
2022-08-17T19:11:10.094Z,44.05
2022-08-17T19:13:41.481Z,45.14
2022-08-17T19:16:12.300Z,45.95
2022-08-17T19:18:51.997Z,46.50
2022-08-17T19:21:23.988Z,46.62
2022-08-17T19:23:53.783Z,46.11
2022-08-17T19:26:54.283Z,46.80
2022-08-17T19:29:34.631Z,47.45
2022-08-17T19:32:01.599Z,48.52
2022-08-17T19:34:33.930Z,48.91
2022-08-17T19:37:08.734Z,49.30
2022-08-17T19:40:02.815Z,49.81
2022-08-17T19:42:49.641Z,50.40
2022-08-17T19:45:25.863Z,51.79
2022-08-17T19:48:12.387Z,52.17
2022-08-17T19:50:57.619Z,52.46
2022-08-17T19:54:03.728Z,53.12
2022-08-17T19:56:43.499Z,53.10
2022-08-17T19:59:48.645Z,52.13
2022-08-17T20:02:37.644Z,53.32
2022-08-17T20:05:19.879Z,52.83
2022-08-17T20:07:51.396Z,53.41
2022-08-17T20:10:38.233Z,54.38
2022-08-17T20:13:11.157Z,55.26
2022-08-17T20:15:42.439Z,55.75
2022-08-17T20:18:47.473Z,54.43
2022-08-17T20:21:20.210Z,55.67
2022-08-17T20:23:56.187Z,55.53
2022-08-17T20:26:28.324Z,55.82
2022-08-17T20:29:08.938Z,56.07
2022-08-17T20:31:51.791Z,56.32
2022-08-17T20:34:31.050Z,56.77
2022-08-17T20:37:04.226Z,57.47
2022-08-17T20:39:38.649Z,57.74
2022-08-17T20:42:29.967Z,58.03
2022-08-17T20:45:05.348Z,58.09
2022-08-17T20:47:55.141Z,58.08
2022-08-17T20:50:37.800Z,59.03
2022-08-17T20:53:08.539Z,59.87
2022-08-17T20:55:51.990Z,60.01
2022-08-17T20:58:25.234Z,60.55
2022-08-17T21:00:57.455Z,60.88
2022-08-17T21:03:24.083Z,60.71
2022-08-17T21:06:14.416Z,60.84
2022-08-17T21:09:13.046Z,62.15
2022-08-17T21:11:56.989Z,62.00
2022-08-17T21:14:40.997Z,62.82
2022-08-17T21:17:33.713Z,62.04
2022-08-17T21:20:12.681Z,62.04
2022-08-17T21:22:53.365Z,61.66
2022-08-17T21:25:32.405Z,61.90
2022-08-17T21:28:20.358Z,61.90
2022-08-17T21:30:59.156Z,61.70
2022-08-17T21:33:31.430Z,61.52
2022-08-17T21:36:00.618Z,62.16
2022-08-17T21:38:35.356Z,63.35
2022-08-17T21:41:01.977Z,65.11
2022-08-17T21:43:35.196Z,64.58
2022-08-17T21:46:06.724Z,64.35
2022-08-17T21:48:43.832Z,65.00
2022-08-17T21:51:19.349Z,64.27
2022-08-17T21:53:52.693Z,64.72
2022-08-17T21:56:26.059Z,64.34
2022-08-17T21:59:19.393Z,65.05
2022-08-17T22:01:57.601Z,64.65
2022-08-17T22:04:41.566Z,65.06
2022-08-17T22:07:11.535Z,64.91
2022-08-17T22:09:46.895Z,64.61
2022-08-17T22:12:22.086Z,65.14
2022-08-17T22:15:01.581Z,67.80
2022-08-17T22:17:29.396Z,67.41
2022-08-17T22:20:00.458Z,67.14
2022-08-17T22:23:08.849Z,66.59
2022-08-17T22:25:38.870Z,66.40
2022-08-17T22:28:08.737Z,66.47
2022-08-17T22:30:58.057Z,66.33
2022-08-17T22:33:43.613Z,66.45
2022-08-17T22:36:26.208Z,67.02
2022-08-17T22:38:55.788Z,67.73
2022-08-17T22:41:57.127Z,68.44
2022-08-17T22:44:30.048Z,69.52
2022-08-17T22:47:00.493Z,69.02
2022-08-17T22:49:34.149Z,71.08
2022-08-17T22:52:11.220Z,71.84
2022-08-17T22:54:56.058Z,72.50
2022-08-17T22:57:42.882Z,72.79
2022-08-17T23:00:31.783Z,72.48
2022-08-17T23:03:28.111Z,71.53
2022-08-17T23:06:10.572Z,71.29
2022-08-17T23:08:49.565Z,71.49
2022-08-17T23:11:16.265Z,70.90
2022-08-17T23:13:42.921Z,70.29
2022-08-17T23:16:09.470Z,70.28
2022-08-17T23:18:36.315Z,69.90
2022-08-17T23:21:03.224Z,69.36
2022-08-17T23:23:29.723Z,69.06
2022-08-17T23:25:56.160Z,69.34
2022-08-17T23:28:22.609Z,69.31
2022-08-17T23:30:49.102Z,69.50
2022-08-17T23:33:26.461Z,70.31
2022-08-17T23:35:53.925Z,70.07
2022-08-17T23:38:20.502Z,71.28
2022-08-17T23:40:46.950Z,69.42
2022-08-17T23:43:23.665Z,68.55
2022-08-17T23:45:53.682Z,69.50
2022-08-17T23:48:35.346Z,70.72
2022-08-17T23:51:04.623Z,71.21
2022-08-17T23:53:34.457Z,69.69
2022-08-17T23:56:06.968Z,69.90
2022-08-17T23:58:38.341Z,70.08
